Data for 08/20/2018

Time Sea-Level Adjusted Pressure Absolute Pressure Temperature Relative Humidity Dew Point   
(mb) (inHg) (mb) (inHg) (C) (F) (%) (C) (F)
00:05 1022 30.18 851 25.13 14.4 57.9 64 7.7 45.8
00:10 1021 30.15 851 25.13 14.2 57.6 64 7.7 45.8
00:15 1021 30.15 851 25.13 14.1 57.4 65 7.7 45.8
00:20 1021 30.15 851 25.13 14 57.3 65 7.7 45.8
00:25 1021 30.15 851 25.13 14.1 57.3 65 7.6 45.7
00:30 1021 30.15 851 25.13 14.1 57.4 65 7.7 45.9
00:35 1022 30.18 851 25.13 14 57.2 65 7.7 45.8
00:40 1022 30.18 851 25.13 13.9 57 66 7.7 45.8
00:45 1022 30.18 851 25.13 13.8 56.8 66 7.7 45.8
00:50 1022 30.18 851 25.13 13.7 56.7 67 7.7 45.8
00:55 1022 30.18 851 25.13 13.6 56.6 67 7.7 45.8
01:00 1022 30.18 851 25.13 13.6 56.5 67 7.7 45.9
01:05 1022 30.18 851 25.13 13.6 56.5 67 7.7 45.9
01:10 1022 30.18 851 25.13 13.6 56.5 67 7.7 45.9
01:15 1022 30.18 851 25.13 13.6 56.4 68 7.8 46.1
01:20 1022 30.18 851 25.13 13.5 56.3 68 7.8 46
01:25 1022 30.18 851 25.13 13.4 56.1 68 7.8 46
01:30 1022 30.18 851 25.13 13.4 56 68 7.7 45.9
01:35 1022 30.18 851 25.13 13.3 56 68 7.7 45.9
01:40 1022 30.18 852 25.16 13.4 56 68 7.7 45.9
01:45 1022 30.18 852 25.16 13.3 56 68 7.7 45.9
01:50 1022 30.18 851 25.13 13.4 56.1 68 7.6 45.8
01:55 1022 30.18 851 25.13 13.5 56.3 67 7.7 45.8
02:00 1022 30.18 851 25.13 13.6 56.5 67 7.7 45.8
02:05 1022 30.18 851 25.13 13.4 56.2 68 7.7 45.8
02:10 1022 30.18 851 25.13 13.3 56 68 7.7 45.8
02:15 1022 30.18 851 25.13 13.1 55.7 69 7.6 45.7
02:20 1022 30.18 851 25.13 13 55.3 69 7.5 45.5
02:25 1022 30.18 851 25.13 13 55.3 69 7.4 45.4
02:30 1022 30.18 851 25.13 13 55.3 69 7.5 45.5
02:35 1022 30.18 851 25.13 13 55.4 69 7.5 45.5
02:40 1022 30.18 851 25.13 13 55.4 69 7.5 45.6
02:45 1022 30.18 852 25.16 13.1 55.5 69 7.5 45.5
02:50 1023 30.21 852 25.16 13.1 55.6 69 7.5 45.5
02:55 1023 30.21 852 25.16 13.2 55.7 70 7.8 46
03:00 1023 30.21 852 25.16 13.2 55.8 71 8.1 46.7
03:05 1023 30.21 852 25.16 13 55.4 72 8.1 46.7
03:10 1022 30.18 851 25.13 12.8 55.1 73 8.1 46.6
03:15 1022 30.18 851 25.13 12.6 54.7 75 8.3 46.9
03:20 1021 30.15 850 25.1 12.4 54.3 75 8 46.5
03:25 1020 30.12 849 25.07 12.5 54.5 73 7.8 46.1
03:30 1020 30.12 849 25.07 12.5 54.4 73 7.8 46
03:35 1020 30.12 849 25.07 12.5 54.6 73 7.9 46.2
03:40 1021 30.15 850 25.1 12.8 55 72 7.9 46.2
03:45 1021 30.15 850 25.1 13.3 55.9 71 8.1 46.6
03:50 1021 30.15 851 25.13 13.4 56 71 8.3 47
03:55 1022 30.18 851 25.13 13.4 56 71 8.3 46.9
04:00 1021 30.15 850 25.1 13.4 56.2 69 8 46.4
04:05 1021 30.15 851 25.13 13.6 56.6 70 8.3 46.9
04:10 1022 30.18 851 25.13 13.6 56.4 69 8.1 46.6
04:15 1022 30.18 851 25.13 13.8 56.9 69 8.2 46.7
04:20 1022 30.18 851 25.13 14 57.1 68 8.3 46.9
04:25 1022 30.18 851 25.13 13.8 56.9 71 8.6 47.5
04:30 1022 30.18 851 25.13 13.4 56.2 72 8.5 47.3
04:35 1022 30.18 851 25.13 13.2 55.8 72 8.4 47.2
04:40 1022 30.18 851 25.13 13.1 55.6 72 8.3 46.9
04:45 1022 30.18 851 25.13 13.3 55.9 70 8 46.3
04:50 1022 30.18 851 25.13 13.5 56.4 69 8 46.4
04:55 1022 30.18 851 25.13 13.6 56.5 69 8.1 46.7
05:00 1022 30.18 851 25.13 13.5 56.3 70 8.2 46.8
05:05 1022 30.18 851 25.13 13.4 56.1 71 8.4 47
05:10 1022 30.18 851 25.13 13.3 56 72 8.3 47
05:15 1022 30.18 851 25.13 13.2 55.8 71 8.1 46.6
05:20 1022 30.18 851 25.13 13.2 55.7 71 8.1 46.6
05:25 1022 30.18 851 25.13 13 55.5 71 8 46.3
05:30 1022 30.18 851 25.13 13 55.3 71 7.9 46.3
05:35 1022 30.18 851 25.13 12.7 54.8 72 7.8 46.1
05:40 1022 30.18 851 25.13 12.4 54.2 72 7.5 45.4
05:45 1022 30.18 851 25.13 12.2 54 72 7.4 45.3
05:50 1022 30.18 851 25.13 12.1 53.8 72 7.3 45.1
05:55 1022 30.18 851 25.13 12 53.5 72 7 44.7
06:00 1022 30.18 851 25.13 12 53.5 71 7 44.6
06:05 1022 30.18 851 25.13 12 53.5 71 6.9 44.4
06:10 1022 30.18 851 25.13 12 53.7 70 6.8 44.2
06:15 1022 30.18 851 25.13 12.2 53.9 69 6.7 44.1
06:20 1022 30.18 851 25.13 12.3 54.1 69 6.7 44.1
06:25 1022 30.18 851 25.13 12.2 53.9 69 6.7 44
06:30 1022 30.18 851 25.13 12 53.7 69 6.5 43.7
06:35 1022 30.18 851 25.13 11.9 53.4 70 6.6 43.9
06:40 1022 30.18 851 25.13 11.6 53 71 6.6 43.8
06:45 1022 30.18 851 25.13 11.5 52.7 72 6.5 43.8
06:50 1022 30.18 851 25.13 11.5 52.7 72 6.6 43.9
06:55 1022 30.18 851 25.13 11.6 53 71 6.5 43.8
07:00 1022 30.18 851 25.13 12.2 53.9 69 6.7 44
07:05 1022 30.18 851 25.13 12.3 54.2 69 6.9 44.4
07:10 1022 30.18 851 25.13 12.1 53.8 71 7 44.6
07:15 1022 30.18 851 25.13 11.9 53.4 71 6.9 44.4
07:20 1022 30.18 851 25.13 11.9 53.3 72 7 44.5
07:25 1022 30.18 851 25.13 11.8 53.3 72 7 44.5
07:30 1022 30.18 851 25.13 11.8 53.3 72 6.9 44.4
07:35 1022 30.18 851 25.13 11.9 53.4 72 7 44.5
07:40 1022 30.18 851 25.13 12 53.5 71 6.9 44.4
07:45 1022 30.18 851 25.13 12 53.6 71 6.9 44.5
07:50 1022 30.18 851 25.13 12.1 53.7 71 7 44.5
07:55 1022 30.18 851 25.13 12.1 53.7 70 6.9 44.4
08:00 1022 30.18 851 25.13 12.2 53.9 69 6.7 44.1
08:05 1022 30.18 851 25.13 12.3 54.1 69 6.7 44.1
08:10 1022 30.18 851 25.13 12.4 54.3 68 6.6 44
08:15 1022 30.18 851 25.13 12.4 54.4 68 6.7 44.1
08:20 1022 30.18 851 25.13 12.4 54.3 67 6.6 43.9
08:25 1022 30.18 851 25.13 12.5 54.4 67 6.5 43.8
08:30 1022 30.18 851 25.13 12.6 54.7 66 6.5 43.8
08:35 1022 30.18 851 25.13 12.7 54.9 65 6.5 43.6
08:40 1022 30.18 851 25.13 12.8 55 65 6.5 43.6
08:45 1022 30.18 851 25.13 12.8 55 65 6.5 43.7
08:50 1022 30.18 851 25.13 12.8 55 65 6.3 43.4
08:55 1022 30.18 852 25.16 12.9 55.1 64 6.2 43.2
09:00 1023 30.21 852 25.16 12.9 55.3 64 6.4 43.6
09:05 1023 30.21 853 25.19 12.8 55 64 6.3 43.3
09:10 1023 30.21 853 25.19 12.7 54.9 65 6.4 43.5
09:15 1024 30.24 853 25.19 12.7 54.9 67 6.8 44.2
09:20 1024 30.24 853 25.19 13.3 55.9 67 7.3 45.1
09:25 1024 30.24 853 25.19 13.2 55.7 68 7.6 45.6
09:30 1024 30.24 853 25.19 13.1 55.6 69 7.7 45.9
09:35 1024 30.24 853 25.19 13 55.3 70 7.7 45.9
09:40 1024 30.24 853 25.19 12.9 55.1 71 7.7 45.9
09:45 1024 30.24 853 25.19 12.9 55.2 71 7.7 45.9
09:50 1024 30.24 853 25.19 12.9 55.2 72 8 46.4
09:55 1024 30.24 853 25.19 12.6 54.7 73 7.9 46.2
10:00 1024 30.24 853 25.19 12.6 54.6 73 7.9 46.2
10:05 1024 30.24 853 25.19 12.5 54.5 69 7 44.6
10:10 1024 30.24 853 25.19 12 53.5 69 6.5 43.6
10:15 1024 30.24 853 25.19 11.6 52.9 70 6.3 43.3
10:20 1024 30.24 853 25.19 11.4 52.5 70 6.1 43.1
10:25 1024 30.24 853 25.19 11.2 52.2 70 6.1 43
10:30 1024 30.24 853 25.19 11.1 52 71 6.1 43
10:35 1024 30.24 853 25.19 11 51.9 71 6.1 42.9
10:40 1024 30.24 853 25.19 11 51.7 72 6 42.9
10:45 1024 30.24 854 25.22 10.9 51.7 72 6.1 43.1
10:50 1024 30.24 854 25.22 10.9 51.6 73 6.2 43.1
10:55 1024 30.24 853 25.19 10.8 51.4 73 6.2 43.1
11:00 1024 30.24 853 25.19 10.8 51.4 73 6.2 43.2
11:05 1024 30.24 853 25.19 10.9 51.5 73 6.3 43.4
11:10 1024 30.24 853 25.19 10.8 51.4 74 6.3 43.4
11:15 1024 30.24 853 25.19 10.8 51.5 74 6.4 43.5
11:20 1024 30.24 853 25.19 10.8 51.5 74 6.4 43.5
11:25 1024 30.24 853 25.19 10.9 51.6 74 6.5 43.8
11:30 1024 30.24 853 25.19 10.9 51.6 75 6.6 43.9
11:35 1024 30.24 853 25.19 10.9 51.6 75 6.6 44
11:40 1024 30.24 853 25.19 10.9 51.7 75 6.7 44.1
11:45 1024 30.24 853 25.19 10.9 51.6 75 6.7 44
11:50 1024 30.24 853 25.19 11 51.7 75 6.7 44
11:55 1024 30.24 853 25.19 11 51.8 75 6.7 44.1
12:00 1024 30.24 853 25.19 11 51.7 75 6.7 44.1
12:05 1024 30.24 853 25.19 10.9 51.7 74 6.6 43.9
12:10 1024 30.24 853 25.19 10.8 51.5 75 6.6 44
12:15 1024 30.24 853 25.19 10.8 51.5 75 6.6 44
12:20 1024 30.24 853 25.19 10.7 51.3 76 6.7 44.1
12:25 1024 30.24 853 25.19 10.7 51.3 76 6.7 44
12:30 1023 30.21 853 25.19 10.7 51.3 75 6.5 43.8
12:35 1023 30.21 853 25.19 10.7 51.2 75 6.5 43.6
12:40 1023 30.21 852 25.16 10.7 51.2 75 6.4 43.5
12:45 1023 30.21 852 25.16 10.7 51.2 74 6.3 43.4
12:50 1023 30.21 852 25.16 10.7 51.2 74 6.3 43.3
12:55 1023 30.21 852 25.16 10.7 51.3 74 6.3 43.4
13:00 1023 30.21 852 25.16 10.7 51.2 74 6.3 43.3
13:05 1023 30.21 852 25.16 10.7 51.3 74 6.3 43.4
13:10 1023 30.21 852 25.16 10.7 51.3 74 6.3 43.3
13:15 1023 30.21 852 25.16 10.9 51.5 74 6.3 43.4
13:20 1023 30.21 852 25.16 11 51.7 74 6.4 43.6
13:25 1023 30.21 852 25.16 10.9 51.6 73 6.3 43.4
13:30 1023 30.21 852 25.16 10.9 51.6 73 6.3 43.3
13:35 1023 30.21 852 25.16 10.9 51.7 72 6.1 43.1
13:40 1023 30.21 852 25.16 10.9 51.6 72 6.1 42.9
13:45 1023 30.21 852 25.16 10.8 51.4 72 6 42.7
13:50 1023 30.21 852 25.16 10.7 51.3 72 6 42.7
13:55 1023 30.21 852 25.16 10.5 51 73 5.9 42.6
14:00 1023 30.21 852 25.16 10.5 50.8 73 5.9 42.6
14:05 1023 30.21 852 25.16 10.3 50.6 73 5.8 42.4
14:10 1023 30.21 852 25.16 10.3 50.5 73 5.6 42.2
14:15 1023 30.21 853 25.19 10.1 50.2 72 5.4 41.7
14:20 1023 30.21 852 25.16 10.1 50.2 72 5.4 41.7
14:25 1023 30.21 852 25.16 10.1 50.1 72 5.3 41.5
14:30 1023 30.21 852 25.16 10.1 50.1 72 5.3 41.6
14:35 1023 30.21 852 25.16 10 50.1 72 5.2 41.4
14:40 1023 30.21 852 25.16 10 50.1 72 5.3 41.5
14:45 1023 30.21 852 25.16 9.9 49.7 73 5.2 41.4
14:50 1023 30.21 852 25.16 9.8 49.6 72 5.1 41.1
14:55 1023 30.21 852 25.16 9.8 49.6 72 5.1 41.2
15:00 1023 30.21 852 25.16 9.8 49.6 73 5.1 41.2
15:05 1023 30.21 852 25.16 9.8 49.7 72 5.1 41.2
15:10 1023 30.21 852 25.16 9.9 49.7 71 5 40.9
15:15 1023 30.21 852 25.16 9.9 49.9 71 5 41
15:20 1023 30.21 852 25.16 9.9 49.8 72 5.1 41.2
15:25 1023 30.21 852 25.16 9.8 49.7 72 5.1 41.1
15:30 1023 30.21 852 25.16 9.8 49.7 72 5 41
15:35 1023 30.21 852 25.16 9.8 49.7 72 5 41
15:40 1023 30.21 852 25.16 9.9 49.8 71 5 40.9
15:45 1023 30.21 852 25.16 10 50 71 5 41
15:50 1023 30.21 852 25.16 10.1 50.3 70 4.9 40.9
15:55 1023 30.21 852 25.16 10.2 50.4 70 5 41
16:00 1023 30.21 852 25.16 10.2 50.3 71 5.1 41.1
16:05 1023 30.21 852 25.16 10 50 71 5 41
16:10 1022 30.18 852 25.16 10.2 50.4 70 4.9 40.9
16:15 1022 30.18 852 25.16 10.4 50.7 69 5 40.9
16:20 1023 30.21 852 25.16 10.4 50.7 69 5 41
16:25 1023 30.21 852 25.16 10.2 50.4 70 5 40.9
16:30 1023 30.21 852 25.16 10.1 50.1 70 4.9 40.9
16:35 1023 30.21 852 25.16 10 50.1 70 4.9 40.8
16:40 1023 30.21 852 25.16 10 49.9 70 4.8 40.7
16:45 1023 30.21 852 25.16 10 50 70 4.8 40.7
16:50 1023 30.21 852 25.16 10 50.1 70 4.9 40.7
16:55 1023 30.21 852 25.16 10.1 50.1 70 4.8 40.7
17:00 1023 30.21 852 25.16 10.1 50.1 70 4.8 40.7
17:05 1023 30.21 852 25.16 10.1 50.1 70 4.8 40.6
17:10 1023 30.21 852 25.16 10.1 50.1 70 4.8 40.6
17:15 1023 30.21 852 25.16 10.1 50.2 70 4.9 40.8
17:20 1023 30.21 853 25.19 10.1 50.2 70 4.9 40.9
17:25 1023 30.21 853 25.19 10.1 50.1 71 5 40.9
17:30 1024 30.24 853 25.19 10 49.9 71 4.9 40.8
17:35 1024 30.24 853 25.19 9.9 49.8 71 4.8 40.7
17:40 1024 30.24 853 25.19 9.8 49.7 71 4.8 40.7
17:45 1024 30.24 853 25.19 9.8 49.7 71 4.9 40.7
17:50 1024 30.24 853 25.19 9.8 49.7 71 4.8 40.6
17:55 1024 30.24 853 25.19 9.8 49.7 69 4.5 40.2
18:00 1024 30.24 853 25.19 9.8 49.7 70 4.7 40.5
18:05 1024 30.24 853 25.19 9.7 49.5 71 4.8 40.6
18:10 1024 30.24 853 25.19 9.6 49.3 72 4.9 40.9
18:15 1024 30.24 853 25.19 9.5 49 73 5 41
18:20 1024 30.24 853 25.19 9.2 48.6 75 5 40.9
18:25 1024 30.24 853 25.19 9.1 48.4 75 4.9 40.9
18:30 1024 30.24 853 25.19 9 48.1 77 5.1 41.3
18:35 1024 30.24 854 25.22 8.9 47.9 77 5.1 41.1
18:40 1025 30.27 854 25.22 8.8 47.8 78 5.1 41.2
18:45 1025 30.27 854 25.22 8.7 47.7 78 5 41.1
18:50 1025 30.27 854 25.22 8.7 47.7 77 5 41
18:55 1025 30.27 854 25.22 8.7 47.7 78 5.1 41.2
19:00 1025 30.27 854 25.22 8.7 47.6 78 5.1 41.2
19:05 1025 30.27 854 25.22 8.6 47.5 77 4.8 40.7
19:10 1025 30.27 854 25.22 8.6 47.5 79 5.2 41.3
19:15 1025 30.27 854 25.22 8.6 47.4 78 5 41.1
19:20 1025 30.27 854 25.22 8.5 47.4 80 5.2 41.4
19:25 1025 30.27 854 25.22 8.5 47.2 79 5.1 41.2
19:30 1025 30.27 854 25.22 8.5 47.2 80 5.2 41.4
19:35 1025 30.27 854 25.22 8.4 47.1 80 5.2 41.3
19:40 1025 30.27 855 25.25 8.4 47.1 81 5.3 41.6
19:45 1026 30.3 855 25.25 8.4 47 81 5.3 41.6
19:50 1026 30.3 855 25.25 8.3 47 82 5.4 41.7
19:55 1026 30.3 855 25.25 8.3 46.9 82 5.4 41.7
20:00 1026 30.3 855 25.25 8.2 46.7 83 5.4 41.8
20:05 1026 30.3 855 25.25 8.1 46.6 83 5.3 41.6
20:10 1026 30.3 855 25.25 8.1 46.6 83 5.5 41.9
20:15 1026 30.3 855 25.25 8 46.4 84 5.5 41.9
20:20 1026 30.3 855 25.25 8 46.3 84 5.5 41.9
20:25 1026 30.3 855 25.25 8 46.4 84 5.4 41.8
20:30 1026 30.3 855 25.25 8 46.4 83 5.3 41.5
20:35 1025 30.27 855 25.25 8 46.5 84 5.4 41.8
20:40 1025 30.27 855 25.25 8 46.4 83 5.3 41.6
20:45 1025 30.27 855 25.25 8 46.4 84 5.5 41.8
20:50 1025 30.27 854 25.22 7.9 46.3 83 5.3 41.5
20:55 1025 30.27 854 25.22 8 46.3 82 5.1 41.2
21:00 1025 30.27 854 25.22 8 46.4 83 5.2 41.4
21:05 1025 30.27 854 25.22 8 46.4 81 5 41
21:10 1025 30.27 854 25.22 8.1 46.6 80 4.9 40.8
21:15 1025 30.27 854 25.22 8.1 46.5 80 4.8 40.6
21:20 1025 30.27 854 25.22 8.1 46.6 79 4.7 40.5
21:25 1025 30.27 854 25.22 8.2 46.7 79 4.7 40.5
21:30 1025 30.27 854 25.22 8.3 46.9 77 4.5 40.2
21:35 1025 30.27 854 25.22 8.3 46.9 78 4.7 40.5
21:40 1025 30.27 855 25.25 8.2 46.7 80 4.9 40.8
21:45 1025 30.27 855 25.25 8.1 46.5 81 5 40.9
21:50 1025 30.27 855 25.25 8 46.4 80 4.9 40.7
21:55 1025 30.27 855 25.25 8.1 46.5 80 4.8 40.7
22:00 1026 30.3 855 25.25 8.1 46.6 80 4.8 40.7
22:05 1026 30.3 855 25.25 8.2 46.7 81 5 41.1
22:10 1026 30.3 855 25.25 8.1 46.6 81 5 41
22:15 1026 30.3 855 25.25 8.1 46.5 81 5 41
22:20 1026 30.3 855 25.25 8.1 46.6 80 4.9 40.9
22:25 1026 30.3 856 25.28 8.1 46.6 80 5 40.9
22:30 1026 30.3 856 25.28 8.1 46.5 82 5.2 41.3
22:35 1026 30.3 856 25.28 8.1 46.5 81 5 41
22:40 1026 30.3 856 25.28 8 46.5 81 5 40.9
22:45 1026 30.3 856 25.28 8 46.5 81 5 41
22:50 1026 30.3 856 25.28 8 46.3 81 5 41
22:55 1026 30.3 856 25.28 7.9 46.2 83 5.1 41.2
23:00 1026 30.3 855 25.25 7.8 46.1 83 5.1 41.1
23:05 1026 30.3 855 25.25 7.8 46 83 5.1 41.3
23:10 1026 30.3 855 25.25 7.7 45.9 83 5.1 41.1
23:15 1026 30.3 855 25.25 7.6 45.7 85 5.2 41.4
23:20 1025 30.27 855 25.25 7.4 45.4 86 5.2 41.4
23:25 1025 30.27 854 25.22 7.4 45.3 85 5.1 41.2
23:30 1025 30.27 854 25.22 7.3 45.1 86 5.2 41.3
23:35 1024 30.24 853 25.19 7.3 45.1 85 5 41
23:40 1024 30.24 853 25.19 7.5 45.4 84 4.9 40.8
23:45 1023 30.21 852 25.16 7.6 45.7 82 4.7 40.4
23:50 1023 30.21 852 25.16 7.7 45.8 81 4.6 40.2
23:55 1023 30.21 852 25.16 7.8 46 79 4.4 39.9
24:00 1023 30.21 852 25.16 7.9 46.2 79 4.4 40